createdAt,value
2022-08-29T00:02:25.806Z,21.80
2022-08-29T00:04:53.855Z,21.78
2022-08-29T00:07:22.256Z,21.74
2022-08-29T00:09:50.253Z,21.69
2022-08-29T00:12:18.338Z,21.68
2022-08-29T00:14:46.362Z,21.64
2022-08-29T00:17:14.437Z,21.54
2022-08-29T00:19:43.809Z,21.40
2022-08-29T00:22:11.879Z,21.33
2022-08-29T00:24:39.968Z,21.21
2022-08-29T00:27:07.983Z,21.08
2022-08-29T00:29:35.939Z,20.94
2022-08-29T00:32:04.434Z,20.86
2022-08-29T00:34:32.577Z,20.76
2022-08-29T00:37:01.951Z,20.69
2022-08-29T00:39:29.985Z,20.62
2022-08-29T00:42:01.109Z,20.57
2022-08-29T00:44:29.344Z,20.52
2022-08-29T00:46:58.560Z,20.48
2022-08-29T00:49:30.443Z,20.45
2022-08-29T00:51:58.742Z,20.43
2022-08-29T00:54:28.433Z,20.41
2022-08-29T00:56:56.538Z,20.41
2022-08-29T00:59:27.743Z,20.40
2022-08-29T01:01:55.977Z,20.39
2022-08-29T01:04:24.519Z,20.39
2022-08-29T01:06:52.602Z,20.39
2022-08-29T01:09:21.042Z,20.40
2022-08-29T01:12:08.199Z,20.40
2022-08-29T01:14:38.571Z,20.41
2022-08-29T01:17:07.231Z,20.45
2022-08-29T01:19:42.735Z,20.44
2022-08-29T01:22:29.989Z,20.42
2022-08-29T01:24:59.384Z,20.35
2022-08-29T01:27:29.613Z,20.37
2022-08-29T01:29:57.941Z,20.34
2022-08-29T01:32:26.499Z,20.43
2022-08-29T01:34:55.328Z,20.37
2022-08-29T01:37:23.305Z,20.35
2022-08-29T01:39:51.347Z,20.32
2022-08-29T01:42:21.751Z,20.29
2022-08-29T01:44:50.798Z,20.26
2022-08-29T01:47:20.940Z,20.23
2022-08-29T01:49:48.971Z,20.20
2022-08-29T01:52:16.979Z,20.29
2022-08-29T01:54:45.316Z,20.32
2022-08-29T01:57:13.566Z,20.36
2022-08-29T01:59:43.088Z,20.37
2022-08-29T02:02:16.663Z,20.38
2022-08-29T02:04:45.415Z,20.21
2022-08-29T02:07:14.016Z,20.37
2022-08-29T02:09:45.635Z,20.33
2022-08-29T02:12:14.262Z,20.29
2022-08-29T02:14:43.743Z,20.30
2022-08-29T02:17:11.721Z,20.28
2022-08-29T02:19:40.012Z,20.23
2022-08-29T02:22:08.606Z,20.15
2022-08-29T02:24:36.630Z,20.04
2022-08-29T02:27:04.772Z,20.02
2022-08-29T02:29:37.702Z,20.00
2022-08-29T02:32:08.213Z,19.96
2022-08-29T02:34:36.449Z,19.87
2022-08-29T02:37:04.818Z,19.79
2022-08-29T02:39:34.027Z,19.73
2022-08-29T02:42:02.071Z,19.68
2022-08-29T02:44:30.076Z,19.62
2022-08-29T02:46:58.153Z,19.58
2022-08-29T02:49:27.621Z,19.48
2022-08-29T02:51:56.141Z,19.49
2022-08-29T02:54:24.240Z,19.39
2022-08-29T02:56:52.401Z,19.38
2022-08-29T02:59:20.408Z,19.39
2022-08-29T03:01:48.421Z,19.39
2022-08-29T03:04:16.470Z,19.40
2022-08-29T03:06:46.833Z,19.40
2022-08-29T03:09:14.809Z,19.41
2022-08-29T03:11:42.829Z,19.40
2022-08-29T03:14:10.822Z,19.39
2022-08-29T03:16:39.125Z,19.38
2022-08-29T03:19:07.160Z,19.34
2022-08-29T03:21:35.234Z,19.28
2022-08-29T03:24:05.003Z,19.22
2022-08-29T03:26:33.018Z,19.19
2022-08-29T03:29:01.042Z,19.20
2022-08-29T03:31:29.051Z,19.18
2022-08-29T03:33:57.245Z,19.19
2022-08-29T03:36:26.268Z,19.17
2022-08-29T03:38:54.374Z,19.16
2022-08-29T03:41:24.543Z,19.11
2022-08-29T03:43:52.754Z,19.11
2022-08-29T03:46:20.827Z,19.11
2022-08-29T03:48:48.916Z,19.14
2022-08-29T03:51:16.972Z,19.15
2022-08-29T03:53:45.089Z,19.21
2022-08-29T03:56:18.332Z,19.32
2022-08-29T03:58:52.504Z,19.40
2022-08-29T04:01:22.608Z,19.45
2022-08-29T04:03:51.064Z,19.59
2022-08-29T04:06:19.387Z,19.67
2022-08-29T04:08:47.492Z,19.74
2022-08-29T04:11:15.787Z,19.76
2022-08-29T04:13:43.835Z,19.84
2022-08-29T04:16:13.963Z,19.94
2022-08-29T04:18:42.116Z,20.08
2022-08-29T04:21:10.223Z,20.21
2022-08-29T04:23:38.641Z,20.27
2022-08-29T04:26:30.141Z,20.49
2022-08-29T04:28:55.182Z,20.66
2022-08-29T04:31:24.640Z,20.93
2022-08-29T04:33:52.701Z,21.33
2022-08-29T04:36:20.824Z,21.70
2022-08-29T04:38:48.840Z,22.17
2022-08-29T04:41:16.877Z,22.65
2022-08-29T04:43:46.479Z,23.22
2022-08-29T04:46:23.471Z,23.33
2022-08-29T04:48:54.171Z,23.58
2022-08-29T04:51:22.390Z,23.93
2022-08-29T04:53:51.437Z,24.16
2022-08-29T04:56:19.609Z,24.17
2022-08-29T04:58:50.569Z,24.03
2022-08-29T05:01:20.221Z,24.11
2022-08-29T05:03:48.324Z,24.24
2022-08-29T05:06:20.203Z,24.47
2022-08-29T05:08:54.295Z,24.63
2022-08-29T05:11:28.624Z,24.67
2022-08-29T05:13:56.626Z,24.79
2022-08-29T05:16:24.682Z,24.89
2022-08-29T05:18:52.732Z,24.82
2022-08-29T05:21:27.286Z,24.81
2022-08-29T05:23:56.574Z,24.74
2022-08-29T05:26:24.738Z,24.61
2022-08-29T05:28:52.831Z,24.42
2022-08-29T05:31:21.097Z,24.30
2022-08-29T05:33:49.379Z,24.17
2022-08-29T05:36:17.762Z,24.21
2022-08-29T05:38:47.212Z,24.31
2022-08-29T05:41:15.208Z,24.32
2022-08-29T05:43:43.251Z,24.59
2022-08-29T05:46:11.483Z,24.84
2022-08-29T05:48:41.138Z,25.05
2022-08-29T05:51:09.206Z,25.30
2022-08-29T05:53:37.243Z,25.69
2022-08-29T05:56:06.963Z,26.07
2022-08-29T05:58:35.091Z,26.29
2022-08-29T06:01:03.234Z,26.76
2022-08-29T06:03:31.438Z,27.25
2022-08-29T06:05:59.523Z,27.43
2022-08-29T06:08:27.516Z,27.75
2022-08-29T06:10:55.493Z,28.05
2022-08-29T06:13:24.924Z,28.12
2022-08-29T06:15:52.992Z,28.24
2022-08-29T06:18:25.265Z,28.50
2022-08-29T06:21:05.366Z,28.71
2022-08-29T06:23:33.413Z,29.00
2022-08-29T06:26:01.473Z,29.08
2022-08-29T06:28:31.254Z,29.05
2022-08-29T06:30:59.333Z,29.09
2022-08-29T06:33:27.350Z,29.08
2022-08-29T06:35:55.345Z,29.31
2022-08-29T06:38:23.355Z,29.25
2022-08-29T06:40:51.444Z,29.35
2022-08-29T06:43:19.454Z,29.52
2022-08-29T06:45:48.854Z,29.67
2022-08-29T06:48:16.922Z,29.91
2022-08-29T06:50:45.714Z,29.92
2022-08-29T06:53:26.895Z,29.99
2022-08-29T06:55:56.559Z,30.10
2022-08-29T06:58:24.580Z,30.35
2022-08-29T07:00:53.919Z,30.53
2022-08-29T07:03:23.077Z,30.72
2022-08-29T07:05:53.454Z,31.02
2022-08-29T07:08:21.553Z,31.32
2022-08-29T07:10:49.714Z,31.40
2022-08-29T07:13:17.748Z,31.48
2022-08-29T07:15:45.784Z,31.76
2022-08-29T07:18:15.294Z,31.66
2022-08-29T07:20:43.374Z,31.73
2022-08-29T07:23:11.602Z,31.71
2022-08-29T07:25:40.217Z,31.63
2022-08-29T07:28:08.352Z,31.78
2022-08-29T07:30:38.554Z,32.10
2022-08-29T07:33:06.572Z,32.24
2022-08-29T07:35:35.978Z,32.35
2022-08-29T07:38:04.012Z,32.11
2022-08-29T07:40:32.224Z,31.99
2022-08-29T07:43:00.325Z,31.89
2022-08-29T07:45:28.335Z,31.95
2022-08-29T07:47:56.537Z,31.79
2022-08-29T07:50:26.114Z,32.10
2022-08-29T07:52:55.584Z,32.57
2022-08-29T07:55:23.660Z,32.76
2022-08-29T07:57:52.755Z,33.31
2022-08-29T08:00:21.055Z,33.95
2022-08-29T08:02:49.288Z,34.26
2022-08-29T08:05:17.478Z,34.27
2022-08-29T08:07:45.438Z,34.56
2022-08-29T08:10:17.724Z,34.37
2022-08-29T08:12:45.734Z,34.44
2022-08-29T08:15:13.865Z,34.64
2022-08-29T08:17:44.057Z,34.62
2022-08-29T08:20:13.148Z,34.37
2022-08-29T08:22:41.256Z,34.39
2022-08-29T08:25:10.149Z,34.29
2022-08-29T08:27:43.616Z,34.29
2022-08-29T08:30:12.909Z,34.45
2022-08-29T08:32:46.139Z,34.59
2022-08-29T08:35:16.338Z,34.56
2022-08-29T08:37:44.609Z,34.12
2022-08-29T08:40:17.893Z,34.01
2022-08-29T08:42:47.335Z,34.07
2022-08-29T08:45:15.452Z,34.04
2022-08-29T08:47:44.793Z,34.11
2022-08-29T08:50:16.757Z,34.12
2022-08-29T08:52:46.796Z,34.30
2022-08-29T08:55:19.689Z,34.51
2022-08-29T08:57:52.783Z,34.63
2022-08-29T09:00:21.363Z,34.30
2022-08-29T09:02:56.110Z,34.34
2022-08-29T09:05:33.287Z,34.22
2022-08-29T09:08:05.281Z,34.13
2022-08-29T09:10:38.317Z,33.94
2022-08-29T09:13:12.589Z,33.72
2022-08-29T09:15:42.417Z,33.69
2022-08-29T09:18:13.662Z,33.55
2022-08-29T09:20:42.189Z,33.63
2022-08-29T09:23:14.771Z,33.74
2022-08-29T09:25:42.905Z,33.86
2022-08-29T09:28:12.379Z,34.03
2022-08-29T09:30:42.565Z,34.35
2022-08-29T09:33:11.623Z,34.72
2022-08-29T09:35:40.964Z,35.16
2022-08-29T09:38:09.684Z,35.38
2022-08-29T09:40:49.881Z,35.47
2022-08-29T09:43:22.487Z,35.65
2022-08-29T09:46:14.853Z,35.90
2022-08-29T09:48:43.801Z,36.05
2022-08-29T09:51:28.501Z,35.60
2022-08-29T09:54:14.095Z,35.63
2022-08-29T09:56:53.956Z,36.01
2022-08-29T09:59:26.219Z,36.80
2022-08-29T10:02:19.706Z,37.33
2022-08-29T10:04:48.838Z,37.76
2022-08-29T10:07:19.162Z,37.95
2022-08-29T10:09:57.931Z,37.91
2022-08-29T10:12:28.488Z,38.18
2022-08-29T10:14:58.421Z,37.97
2022-08-29T10:17:47.730Z,38.10
2022-08-29T10:20:16.222Z,37.68
2022-08-29T10:22:45.454Z,37.71
2022-08-29T10:25:16.336Z,38.12
2022-08-29T10:27:45.461Z,37.89
2022-08-29T10:30:16.249Z,38.16
2022-08-29T10:33:00.650Z,38.59
2022-08-29T10:35:31.033Z,38.38
2022-08-29T10:37:59.973Z,38.58
2022-08-29T10:40:30.570Z,38.75
2022-08-29T10:43:20.998Z,39.14
2022-08-29T10:46:05.441Z,39.46
2022-08-29T10:48:37.568Z,39.35
2022-08-29T10:51:18.926Z,39.17
2022-08-29T10:53:48.813Z,39.15
2022-08-29T10:56:21.487Z,39.77
2022-08-29T10:58:54.564Z,39.70
2022-08-29T11:01:25.367Z,39.99
2022-08-29T11:03:58.760Z,40.14
2022-08-29T11:06:28.852Z,40.10
2022-08-29T11:08:58.580Z,39.88
2022-08-29T11:11:26.661Z,39.53
2022-08-29T11:13:57.073Z,39.53
2022-08-29T11:16:28.644Z,39.25
2022-08-29T11:18:58.403Z,38.63
2022-08-29T11:21:30.223Z,38.67
2022-08-29T11:24:03.125Z,39.12
2022-08-29T11:26:39.300Z,39.22
2022-08-29T11:29:15.723Z,39.13
2022-08-29T11:31:51.076Z,38.61
2022-08-29T11:34:25.324Z,39.49
2022-08-29T11:37:07.875Z,40.13
2022-08-29T11:39:43.934Z,40.53
2022-08-29T11:42:13.343Z,41.37
2022-08-29T11:44:42.029Z,42.73
2022-08-29T11:47:40.959Z,42.84
2022-08-29T11:50:24.820Z,43.02
2022-08-29T11:52:55.298Z,44.24
2022-08-29T11:55:32.329Z,45.05
2022-08-29T11:58:05.768Z,45.84
2022-08-29T12:00:41.508Z,45.23
2022-08-29T12:03:56.873Z,45.51
2022-08-29T12:06:53.431Z,46.20
2022-08-29T12:09:42.148Z,46.28
2022-08-29T12:12:37.887Z,45.75
2022-08-29T12:15:48.002Z,46.33
2022-08-29T12:18:49.178Z,46.88
2022-08-29T12:21:47.274Z,46.88
2022-08-29T12:24:29.308Z,47.20
2022-08-29T12:26:57.329Z,46.57
2022-08-29T12:29:26.198Z,46.09
2022-08-29T12:32:23.007Z,46.99
2022-08-29T12:35:06.395Z,46.84
2022-08-29T12:37:42.571Z,46.68
2022-08-29T12:40:32.033Z,47.55
2022-08-29T12:43:15.803Z,47.32
2022-08-29T12:45:44.466Z,46.88
2022-08-29T12:48:15.542Z,47.39
2022-08-29T12:50:45.398Z,47.50
2022-08-29T12:53:20.496Z,47.65
2022-08-29T12:55:49.584Z,47.35
2022-08-29T12:58:37.296Z,46.41
2022-08-29T13:01:05.407Z,45.57
2022-08-29T13:03:33.489Z,44.46
2022-08-29T13:06:06.064Z,43.05
2022-08-29T13:08:38.130Z,41.90
2022-08-29T13:11:07.481Z,40.85
2022-08-29T13:13:35.770Z,40.55
2022-08-29T13:16:05.579Z,39.29
2022-08-29T13:18:40.465Z,38.94
2022-08-29T13:21:23.636Z,38.10
2022-08-29T13:24:12.449Z,37.75
2022-08-29T13:26:43.489Z,37.61
2022-08-29T13:32:11.747Z,37.18
2022-08-29T13:34:39.962Z,37.00
2022-08-29T13:37:17.216Z,36.68
2022-08-29T13:39:50.058Z,36.57
2022-08-29T13:42:39.677Z,36.48
2022-08-29T13:45:12.186Z,36.21
2022-08-29T13:47:43.964Z,35.86
2022-08-29T13:50:15.256Z,35.70
2022-08-29T13:52:43.250Z,35.53
2022-08-29T13:55:12.953Z,35.55
2022-08-29T13:57:41.406Z,35.36
2022-08-29T14:00:12.386Z,35.31
2022-08-29T14:02:44.961Z,35.36
2022-08-29T14:05:14.495Z,35.22
2022-08-29T14:07:43.278Z,35.18
2022-08-29T14:10:13.362Z,35.18
2022-08-29T14:12:41.365Z,34.95
2022-08-29T14:15:10.873Z,34.87
2022-08-29T14:17:39.917Z,34.82
2022-08-29T14:20:09.611Z,34.76
2022-08-29T14:22:37.817Z,34.69
2022-08-29T14:25:06.859Z,34.44
2022-08-29T14:27:36.294Z,34.53
2022-08-29T14:30:05.145Z,34.41
2022-08-29T14:32:33.177Z,34.38
2022-08-29T14:35:01.869Z,34.29
2022-08-29T14:37:29.878Z,34.25
2022-08-29T14:39:58.173Z,34.27
2022-08-29T14:42:26.328Z,34.27
2022-08-29T14:44:55.684Z,34.30
2022-08-29T14:47:23.654Z,34.27
2022-08-29T14:49:51.656Z,34.25
2022-08-29T14:52:19.745Z,34.20
2022-08-29T14:54:47.740Z,34.09
2022-08-29T14:57:15.883Z,34.06
2022-08-29T14:59:43.878Z,33.98
2022-08-29T15:02:14.507Z,33.86
2022-08-29T15:04:42.615Z,33.83
2022-08-29T15:07:12.268Z,33.79
2022-08-29T15:09:41.825Z,33.67
2022-08-29T15:12:10.013Z,33.64
2022-08-29T15:14:38.000Z,33.59
2022-08-29T15:17:06.248Z,33.55
2022-08-29T15:22:23.750Z,33.54
2022-08-29T15:24:51.948Z,33.53
2022-08-29T15:27:23.631Z,33.44
2022-08-29T15:29:54.450Z,33.33
2022-08-29T15:32:22.614Z,33.28
2022-08-29T15:34:52.053Z,33.19
2022-08-29T15:37:20.095Z,33.03
2022-08-29T15:39:49.962Z,32.88
2022-08-29T15:42:28.635Z,32.72
2022-08-29T15:44:56.692Z,32.68
2022-08-29T15:47:26.323Z,32.64
2022-08-29T15:49:55.799Z,32.54
2022-08-29T15:52:23.814Z,32.48
2022-08-29T15:54:52.283Z,32.40
2022-08-29T15:57:20.291Z,32.37
2022-08-29T15:59:57.921Z,32.32
2022-08-29T16:02:26.850Z,32.18
2022-08-29T16:04:57.366Z,32.09
2022-08-29T16:07:28.837Z,31.96
2022-08-29T16:09:59.760Z,31.78
2022-08-29T16:12:28.425Z,31.68
2022-08-29T16:15:00.318Z,31.55
2022-08-29T16:17:29.803Z,31.36
2022-08-29T16:19:59.320Z,31.27
2022-08-29T16:22:28.618Z,31.09
2022-08-29T16:24:56.773Z,30.93
2022-08-29T16:27:24.853Z,30.84
2022-08-29T16:29:52.859Z,30.70
2022-08-29T16:32:21.137Z,30.60
2022-08-29T16:34:49.166Z,30.50
2022-08-29T16:37:18.918Z,30.39
2022-08-29T16:39:46.882Z,30.31
2022-08-29T16:42:14.899Z,30.20
2022-08-29T16:44:42.881Z,30.09
2022-08-29T16:47:11.223Z,30.07
2022-08-29T16:49:39.293Z,30.08
2022-08-29T16:52:07.443Z,30.13
2022-08-29T16:54:36.803Z,30.08
2022-08-29T16:57:05.135Z,29.99
2022-08-29T16:59:37.084Z,30.00
2022-08-29T17:02:05.595Z,29.85
2022-08-29T17:04:33.685Z,29.81
2022-08-29T17:07:02.603Z,29.69
2022-08-29T17:09:29.474Z,29.66
2022-08-29T17:11:57.698Z,29.55
2022-08-29T17:14:28.942Z,29.42
2022-08-29T17:16:57.011Z,29.27
2022-08-29T17:19:25.058Z,29.16
2022-08-29T17:21:53.468Z,29.11
2022-08-29T17:24:21.729Z,29.06
2022-08-29T17:26:49.757Z,29.07
2022-08-29T17:29:19.218Z,29.09
2022-08-29T17:31:47.287Z,29.04
2022-08-29T17:34:16.331Z,28.93
2022-08-29T17:36:44.731Z,28.91
2022-08-29T17:39:12.864Z,28.95
2022-08-29T17:41:40.868Z,28.90
2022-08-29T17:44:11.144Z,28.85
2022-08-29T17:46:40.594Z,28.85
2022-08-29T17:49:10.482Z,28.84
2022-08-29T17:51:39.228Z,28.79
2022-08-29T17:54:08.562Z,28.72
2022-08-29T17:56:44.188Z,28.72
2022-08-29T17:59:12.396Z,28.72
2022-08-29T18:01:41.942Z,28.76
2022-08-29T18:04:10.043Z,28.74
2022-08-29T18:06:38.073Z,28.83
2022-08-29T18:09:06.555Z,28.88
2022-08-29T18:11:34.613Z,28.80
2022-08-29T18:14:02.594Z,28.79
2022-08-29T18:16:30.628Z,28.86
2022-08-29T18:19:00.079Z,28.90
2022-08-29T18:21:29.578Z,28.97
2022-08-29T18:23:57.592Z,29.03
2022-08-29T18:26:26.336Z,29.04
2022-08-29T18:28:54.375Z,29.03
2022-08-29T18:31:22.667Z,29.06
2022-08-29T18:34:00.509Z,29.09
2022-08-29T18:36:30.941Z,29.06
2022-08-29T18:38:58.950Z,29.02
2022-08-29T18:41:26.993Z,29.03
2022-08-29T18:43:55.003Z,29.01
2022-08-29T18:46:23.118Z,28.86
2022-08-29T18:48:51.457Z,28.88
2022-08-29T18:51:19.529Z,28.90
2022-08-29T18:53:48.934Z,28.88
2022-08-29T18:56:17.013Z,28.84
2022-08-29T18:58:45.142Z,28.79
2022-08-29T19:01:13.696Z,28.74
2022-08-29T19:03:42.048Z,28.65
2022-08-29T19:06:10.825Z,28.63
2022-08-29T19:08:39.027Z,28.56
2022-08-29T19:11:08.697Z,28.47
2022-08-29T19:13:36.751Z,28.34
2022-08-29T19:16:06.244Z,28.27
2022-08-29T19:18:34.570Z,28.19
2022-08-29T19:21:06.502Z,28.11
2022-08-29T19:23:35.805Z,27.94
2022-08-29T19:26:04.951Z,27.90
2022-08-29T19:28:34.495Z,27.82
2022-08-29T19:31:03.386Z,27.78
2022-08-29T19:33:32.119Z,27.74
2022-08-29T19:36:00.183Z,27.66
2022-08-29T19:38:30.265Z,27.70
2022-08-29T19:40:59.170Z,27.72
2022-08-29T19:43:28.374Z,27.69
2022-08-29T19:45:57.911Z,27.73
2022-08-29T19:48:27.349Z,27.75
2022-08-29T19:50:55.496Z,27.78
2022-08-29T19:53:26.604Z,27.81
2022-08-29T19:55:55.620Z,27.80
2022-08-29T19:58:31.325Z,27.78
2022-08-29T20:01:02.717Z,27.78
2022-08-29T20:03:31.137Z,27.72
2022-08-29T20:05:59.638Z,27.70
2022-08-29T20:08:29.209Z,27.71
2022-08-29T20:10:59.416Z,27.73
2022-08-29T20:13:29.296Z,27.70
2022-08-29T20:16:04.253Z,27.69
2022-08-29T20:18:32.886Z,27.67
2022-08-29T20:21:01.288Z,27.65
2022-08-29T20:23:30.231Z,27.63
2022-08-29T20:26:00.010Z,27.60
2022-08-29T20:28:28.091Z,27.58
2022-08-29T20:30:56.374Z,27.52
2022-08-29T20:33:26.197Z,27.46
2022-08-29T20:36:11.465Z,27.40
2022-08-29T20:38:39.581Z,27.41
2022-08-29T20:41:07.623Z,27.37
2022-08-29T20:43:38.563Z,27.34
2022-08-29T20:46:07.990Z,27.27
2022-08-29T20:48:37.455Z,27.15
2022-08-29T20:51:08.333Z,27.09
2022-08-29T20:53:36.690Z,27.12
2022-08-29T20:56:04.973Z,27.06
2022-08-29T20:58:33.010Z,27.05
2022-08-29T21:01:01.396Z,27.00
2022-08-29T21:03:46.924Z,26.90
2022-08-29T21:06:18.754Z,26.81
2022-08-29T21:08:46.803Z,26.79
2022-08-29T21:11:15.696Z,26.76
2022-08-29T21:13:44.260Z,26.84
2022-08-29T21:16:12.327Z,26.85
2022-08-29T21:18:40.386Z,26.90
2022-08-29T21:21:08.552Z,26.93
2022-08-29T21:23:37.964Z,26.88
2022-08-29T21:26:05.966Z,26.89
2022-08-29T21:28:34.414Z,26.87
2022-08-29T21:31:06.040Z,26.87
2022-08-29T21:33:36.875Z,26.88
2022-08-29T21:36:08.416Z,26.80
2022-08-29T21:38:38.207Z,26.78
2022-08-29T21:41:09.015Z,26.79
2022-08-29T21:43:37.467Z,26.65
2022-08-29T21:46:08.968Z,26.58
2022-08-29T21:48:37.410Z,26.52
2022-08-29T21:51:05.482Z,26.48
2022-08-29T21:53:33.570Z,26.44
2022-08-29T21:56:07.137Z,26.36
2022-08-29T21:58:35.216Z,26.30
2022-08-29T22:01:03.221Z,26.25
2022-08-29T22:03:31.205Z,26.19
2022-08-29T22:05:59.252Z,26.10
2022-08-29T22:08:28.286Z,26.12
2022-08-29T22:10:56.241Z,26.08
2022-08-29T22:13:25.596Z,26.13
2022-08-29T22:16:10.858Z,26.11
2022-08-29T22:18:38.868Z,26.08
2022-08-29T22:21:06.852Z,25.83
2022-08-29T22:23:34.884Z,25.94
2022-08-29T22:26:02.934Z,25.88
2022-08-29T22:28:32.333Z,25.87
2022-08-29T22:31:01.327Z,25.82
2022-08-29T22:33:29.334Z,25.76
2022-08-29T22:35:57.335Z,25.81
2022-08-29T22:38:25.325Z,25.79
2022-08-29T22:40:53.298Z,25.79
2022-08-29T22:43:21.345Z,25.81
2022-08-29T22:45:51.712Z,25.75
2022-08-29T22:48:21.279Z,25.75
2022-08-29T22:50:56.116Z,25.71
2022-08-29T22:53:26.578Z,25.65
2022-08-29T22:55:54.550Z,25.70
2022-08-29T22:58:22.566Z,25.65
2022-08-29T23:00:51.952Z,25.62
2022-08-29T23:03:20.227Z,25.63
2022-08-29T23:05:48.456Z,25.58
2022-08-29T23:08:17.329Z,25.58
2022-08-29T23:10:49.267Z,25.58
2022-08-29T23:13:17.900Z,25.55
2022-08-29T23:15:46.014Z,25.51
2022-08-29T23:18:15.530Z,25.44
2022-08-29T23:20:45.664Z,25.44
2022-08-29T23:23:15.132Z,25.44
2022-08-29T23:25:43.282Z,25.40
2022-08-29T23:28:11.290Z,25.35
2022-08-29T23:30:39.265Z,25.31
2022-08-29T23:33:07.297Z,25.26
2022-08-29T23:35:38.385Z,25.19
2022-08-29T23:38:07.914Z,25.18
2022-08-29T23:40:36.235Z,25.15
2022-08-29T23:43:04.858Z,25.06
2022-08-29T23:45:33.447Z,25.01
2022-08-29T23:48:01.444Z,24.98
2022-08-29T23:50:30.642Z,25.01
2022-08-29T23:53:00.006Z,24.97
2022-08-29T23:55:28.025Z,24.95
2022-08-29T23:57:56.059Z,24.96
